createdAt,value
2019-03-09T00:00:47.072Z,77.10
2019-03-09T00:02:51.425Z,77.40
2019-03-09T00:04:55.803Z,77.30
2019-03-09T00:07:00.185Z,77.90
2019-03-09T00:09:05.406Z,77.80
2019-03-09T00:11:09.766Z,77.30
2019-03-09T00:13:14.117Z,78.30
2019-03-09T00:15:18.470Z,78.00
2019-03-09T00:17:22.836Z,77.90
2019-03-09T00:19:27.149Z,78.00
2019-03-09T00:21:31.487Z,78.50
2019-03-09T00:23:41.209Z,78.50
2019-03-09T00:25:49.699Z,78.10
2019-03-09T00:28:00.058Z,77.90
2019-03-09T00:30:10.287Z,78.20
2019-03-09T00:32:17.214Z,78.00
2019-03-09T00:34:21.545Z,77.80
2019-03-09T00:36:25.846Z,77.20
2019-03-09T00:38:30.250Z,77.90
2019-03-09T00:40:34.571Z,77.40
2019-03-09T00:42:38.908Z,77.30
2019-03-09T00:44:43.275Z,77.20
2019-03-09T00:46:47.602Z,77.30
2019-03-09T00:48:51.968Z,77.30
2019-03-09T00:50:56.315Z,77.30
2019-03-09T00:53:00.737Z,77.30
2019-03-09T00:55:05.685Z,77.30
2019-03-09T00:57:10.052Z,78.40
2019-03-09T00:59:14.367Z,78.40
2019-03-09T01:01:18.754Z,78.40
2019-03-09T01:03:23.113Z,78.40
2019-03-09T01:05:27.473Z,78.30
2019-03-09T01:07:31.856Z,78.60
2019-03-09T01:09:36.203Z,78.10
2019-03-09T01:11:40.511Z,78.00
2019-03-09T01:13:44.915Z,78.20
2019-03-09T01:15:49.246Z,78.40
2019-03-09T01:17:53.605Z,78.90
2019-03-09T01:19:57.906Z,79.30
2019-03-09T01:22:02.281Z,80.00
2019-03-09T01:24:06.698Z,80.60
2019-03-09T01:26:11.054Z,80.30
2019-03-09T01:28:16.025Z,81.40
2019-03-09T01:30:20.400Z,81.30
2019-03-09T01:32:24.805Z,82.10
2019-03-09T01:34:29.166Z,82.00
2019-03-09T01:36:33.570Z,82.20
2019-03-09T01:38:37.862Z,82.60
2019-03-09T01:40:42.173Z,83.40
2019-03-09T01:42:46.618Z,83.70
2019-03-09T01:44:50.953Z,83.80
2019-03-09T01:46:55.328Z,83.70
2019-03-09T01:48:59.686Z,83.70
2019-03-09T01:51:04.061Z,84.30
2019-03-09T01:53:08.475Z,84.00
2019-03-09T01:55:12.946Z,84.40
2019-03-09T01:57:17.270Z,84.50
2019-03-09T01:59:21.646Z,84.60
2019-03-09T02:01:25.983Z,85.30
2019-03-09T02:03:30.361Z,85.70
2019-03-09T02:05:34.714Z,85.60
2019-03-09T02:07:39.110Z,85.50
2019-03-09T02:09:43.498Z,86.20
2019-03-09T02:11:47.806Z,86.10
2019-03-09T02:13:52.234Z,86.30
2019-03-09T02:15:56.581Z,86.80
2019-03-09T02:18:00.957Z,87.30
2019-03-09T02:20:05.859Z,87.60
2019-03-09T02:22:10.418Z,87.70
2019-03-09T02:24:14.827Z,87.50
2019-03-09T02:26:19.160Z,87.80
2019-03-09T02:28:23.657Z,88.10
2019-03-09T02:30:27.971Z,88.10
2019-03-09T02:32:32.322Z,88.70
2019-03-09T02:34:36.689Z,88.80
2019-03-09T02:36:41.011Z,89.10
2019-03-09T02:38:57.658Z,89.40
2019-03-09T02:41:02.064Z,89.20
2019-03-09T02:43:06.381Z,90.00
2019-03-09T02:45:12.864Z,90.20
2019-03-09T02:47:18.064Z,90.30
2019-03-09T02:49:22.398Z,90.40
2019-03-09T02:51:26.746Z,90.50
2019-03-09T02:53:31.059Z,90.90
2019-03-09T02:55:35.435Z,91.20
2019-03-09T02:57:39.801Z,91.30
2019-03-09T02:59:44.147Z,91.30
2019-03-09T03:02:08.607Z,91.70
2019-03-09T03:04:13.015Z,91.60
2019-03-09T03:06:17.362Z,91.50
2019-03-09T03:08:21.818Z,91.50
2019-03-09T03:10:26.170Z,91.50
2019-03-09T03:12:30.499Z,91.60
2019-03-09T03:14:34.852Z,91.60
2019-03-09T03:16:39.245Z,91.70
2019-03-09T03:18:43.598Z,91.60
2019-03-09T03:20:47.970Z,91.70
2019-03-09T03:22:52.305Z,91.90
2019-03-09T03:24:56.672Z,91.80
2019-03-09T03:27:01.008Z,92.10
2019-03-09T03:29:05.445Z,92.10
2019-03-09T03:31:10.007Z,92.10
2019-03-09T03:33:14.133Z,92.20
2019-03-09T03:35:18.495Z,92.40
2019-03-09T03:37:22.821Z,92.40
2019-03-09T03:39:27.125Z,92.50
2019-03-09T03:41:31.534Z,92.40
2019-03-09T03:43:35.881Z,92.60
2019-03-09T03:45:40.247Z,92.50
2019-03-09T03:47:44.687Z,92.80
2019-03-09T03:49:49.788Z,92.80
2019-03-09T03:51:54.239Z,92.90
2019-03-09T03:53:58.559Z,92.80
2019-03-09T03:56:03.009Z,92.90
2019-03-09T03:58:07.365Z,92.90
2019-03-09T04:00:11.849Z,92.80
2019-03-09T04:02:16.219Z,92.90
2019-03-09T04:04:20.594Z,92.90
2019-03-09T04:06:25.774Z,92.90
2019-03-09T04:10:35.014Z,92.90
2019-03-09T04:12:39.461Z,92.90
2019-03-09T04:14:43.851Z,92.80
2019-03-09T04:16:48.285Z,93.00
2019-03-09T04:18:52.645Z,92.90
2019-03-09T04:20:56.996Z,93.00
2019-03-09T04:23:01.390Z,92.90
2019-03-09T04:25:05.887Z,93.00
2019-03-09T04:27:10.264Z,92.90
2019-03-09T04:29:14.619Z,93.00
2019-03-09T04:31:18.945Z,93.00
2019-03-09T04:33:23.335Z,93.00
2019-03-09T04:35:27.727Z,93.10
2019-03-09T04:37:32.074Z,93.20
2019-03-09T04:39:36.469Z,93.30
2019-03-09T04:41:40.915Z,93.40
2019-03-09T04:43:45.278Z,93.40
2019-03-09T04:45:49.606Z,93.40
2019-03-09T04:47:53.958Z,93.50
2019-03-09T04:49:58.280Z,93.50
2019-03-09T04:52:02.625Z,93.60
2019-03-09T04:54:06.946Z,93.60
2019-03-09T04:56:11.350Z,93.50
2019-03-09T04:58:15.659Z,93.60
2019-03-09T05:00:20.366Z,93.60
2019-03-09T05:02:24.716Z,93.70
2019-03-09T05:05:04.055Z,93.70
2019-03-09T05:07:08.478Z,93.70
2019-03-09T05:09:22.415Z,93.60
2019-03-09T05:11:30.150Z,93.60
2019-03-09T05:13:40.688Z,93.40
2019-03-09T05:15:45.038Z,93.40
2019-03-09T05:17:49.390Z,93.40
2019-03-09T05:19:53.731Z,93.40
2019-03-09T05:21:58.050Z,93.70
2019-03-09T05:24:02.438Z,93.30
2019-03-09T05:26:06.874Z,93.30
2019-03-09T05:28:11.214Z,93.50
2019-03-09T05:30:21.498Z,93.00
2019-03-09T05:32:25.856Z,93.10
2019-03-09T05:34:30.281Z,93.00
2019-03-09T05:36:34.618Z,92.80
2019-03-09T05:38:38.950Z,92.70
2019-03-09T05:40:43.318Z,92.60
2019-03-09T05:42:47.666Z,92.50
2019-03-09T05:44:52.037Z,92.30
2019-03-09T05:46:56.409Z,92.30
2019-03-09T05:49:00.810Z,92.10
2019-03-09T05:51:05.195Z,92.10
2019-03-09T05:53:13.006Z,91.70
2019-03-09T05:55:18.965Z,91.90
2019-03-09T05:57:23.318Z,91.90
2019-03-09T05:59:27.654Z,91.90
2019-03-09T06:01:32.030Z,91.80
2019-03-09T06:03:36.445Z,91.80
2019-03-09T06:05:50.701Z,91.70
2019-03-09T06:07:55.042Z,91.80
2019-03-09T06:09:59.374Z,91.70
2019-03-09T06:12:03.731Z,91.80
2019-03-09T06:14:08.012Z,91.70
2019-03-09T06:16:12.405Z,91.70
2019-03-09T06:18:16.735Z,91.70
2019-03-09T06:20:21.042Z,91.70
2019-03-09T06:22:25.392Z,91.70
2019-03-09T06:24:29.777Z,91.60
2019-03-09T06:26:34.094Z,91.50
2019-03-09T06:28:38.439Z,91.50
2019-03-09T06:30:42.771Z,91.50
2019-03-09T06:32:58.291Z,91.50
2019-03-09T06:35:02.736Z,91.50
2019-03-09T06:37:13.082Z,91.40
2019-03-09T06:39:19.899Z,91.60
2019-03-09T06:41:30.186Z,91.50
2019-03-09T06:43:34.592Z,91.40
2019-03-09T06:45:38.900Z,91.40
2019-03-09T06:47:43.342Z,91.30
2019-03-09T06:49:47.670Z,91.30
2019-03-09T06:51:52.055Z,91.40
2019-03-09T06:53:56.410Z,91.30
2019-03-09T06:56:00.704Z,91.30
2019-03-09T06:58:05.062Z,91.30
2019-03-09T07:00:31.379Z,91.30
2019-03-09T07:02:35.742Z,91.20
2019-03-09T07:04:40.104Z,91.20
2019-03-09T07:06:44.468Z,91.10
2019-03-09T07:08:48.839Z,91.10
2019-03-09T07:10:53.191Z,90.90
2019-03-09T07:12:57.502Z,90.70
2019-03-09T07:15:33.359Z,90.70
2019-03-09T07:17:37.730Z,90.70
2019-03-09T07:19:42.045Z,90.60
2019-03-09T07:21:46.427Z,90.50
2019-03-09T07:23:50.785Z,90.50
2019-03-09T07:25:55.135Z,90.50
2019-03-09T07:28:01.421Z,90.30
2019-03-09T07:30:09.714Z,90.20
2019-03-09T07:32:14.066Z,90.20
2019-03-09T07:34:25.469Z,90.10
2019-03-09T07:36:29.790Z,90.10
2019-03-09T07:38:34.110Z,90.00
2019-03-09T07:40:38.502Z,89.50
2019-03-09T07:42:42.864Z,90.10
2019-03-09T07:44:47.234Z,89.40
2019-03-09T07:46:51.557Z,89.60
2019-03-09T07:48:55.847Z,89.00
2019-03-09T07:51:00.244Z,88.80
2019-03-09T07:53:04.601Z,89.30
2019-03-09T07:55:11.066Z,88.30
2019-03-09T07:57:15.379Z,88.40
2019-03-09T07:59:19.699Z,88.40
2019-03-09T08:01:24.151Z,88.30
2019-03-09T08:03:28.444Z,87.90
2019-03-09T08:05:32.786Z,88.60
2019-03-09T08:07:37.134Z,87.30
2019-03-09T08:09:41.451Z,87.30
2019-03-09T08:11:45.849Z,87.10
2019-03-09T08:13:50.177Z,86.60
2019-03-09T08:15:54.582Z,87.30
2019-03-09T08:17:58.945Z,85.80
2019-03-09T08:20:03.367Z,86.80
2019-03-09T08:22:07.761Z,86.40
2019-03-09T08:24:12.076Z,86.50
2019-03-09T08:26:16.411Z,85.90
2019-03-09T08:28:20.998Z,85.30
2019-03-09T08:30:25.373Z,85.50
2019-03-09T08:32:29.751Z,85.00
2019-03-09T08:34:34.122Z,85.50
2019-03-09T08:36:38.509Z,85.50
2019-03-09T08:38:42.860Z,85.20
2019-03-09T08:40:51.072Z,84.40
2019-03-09T08:42:55.458Z,84.50
2019-03-09T08:44:59.840Z,83.80
2019-03-09T08:47:06.275Z,84.00
2019-03-09T08:49:10.679Z,84.40
2019-03-09T08:51:18.525Z,82.90
2019-03-09T08:53:22.902Z,83.80
2019-03-09T08:55:27.277Z,83.70
2019-03-09T08:57:31.637Z,83.00
2019-03-09T08:59:36.012Z,83.30
2019-03-09T09:01:42.111Z,83.20
2019-03-09T09:03:46.610Z,83.20
2019-03-09T09:05:50.970Z,82.50
2019-03-09T09:07:55.369Z,81.70
2019-03-09T09:09:59.741Z,82.70
2019-03-09T09:12:04.267Z,81.80
2019-03-09T09:14:08.602Z,80.20
2019-03-09T09:16:12.964Z,80.00
2019-03-09T09:18:17.334Z,80.20
2019-03-09T09:20:22.353Z,79.10
2019-03-09T09:22:26.722Z,80.20
2019-03-09T09:24:31.097Z,80.90
2019-03-09T09:26:35.512Z,81.10
2019-03-09T09:28:40.911Z,81.50
2019-03-09T09:30:45.338Z,81.70
2019-03-09T09:32:49.710Z,81.20
2019-03-09T09:34:54.148Z,82.40
2019-03-09T09:36:58.599Z,80.30
2019-03-09T09:39:03.080Z,81.50
2019-03-09T09:41:07.522Z,81.90
2019-03-09T09:43:11.862Z,81.50
2019-03-09T09:45:16.288Z,82.00
2019-03-09T09:47:20.651Z,81.40
2019-03-09T09:49:25.210Z,81.60
2019-03-09T09:51:30.129Z,81.40
2019-03-09T09:53:34.488Z,82.10
2019-03-09T09:55:38.803Z,81.20
2019-03-09T09:57:43.169Z,81.00
2019-03-09T09:59:47.541Z,81.70
2019-03-09T10:01:51.899Z,81.90
2019-03-09T10:03:56.211Z,82.10
2019-03-09T10:06:00.600Z,81.60
2019-03-09T10:08:04.991Z,80.50
2019-03-09T10:10:10.966Z,81.00
2019-03-09T10:12:15.308Z,79.10
2019-03-09T10:14:26.105Z,79.30
2019-03-09T10:16:30.446Z,80.20
2019-03-09T10:18:34.758Z,79.10
2019-03-09T10:20:39.155Z,79.70
2019-03-09T10:22:43.542Z,79.10
2019-03-09T10:24:47.860Z,78.50
2019-03-09T10:26:52.903Z,80.10
2019-03-09T10:28:57.262Z,78.50
2019-03-09T10:31:01.774Z,79.60
2019-03-09T10:33:06.193Z,77.80
2019-03-09T10:35:11.265Z,77.90
2019-03-09T10:37:15.611Z,78.50
2019-03-09T10:39:19.994Z,78.90
2019-03-09T10:41:24.318Z,78.70
2019-03-09T10:43:28.634Z,77.90
2019-03-09T10:45:33.040Z,77.50
2019-03-09T10:47:37.411Z,77.40
2019-03-09T10:49:41.739Z,77.50
2019-03-09T10:51:46.162Z,76.50
2019-03-09T10:53:50.582Z,77.40
2019-03-09T10:55:54.965Z,76.90
2019-03-09T10:57:59.459Z,77.50
2019-03-09T11:00:04.582Z,77.00
2019-03-09T11:02:08.927Z,76.10
2019-03-09T11:04:13.603Z,75.00
2019-03-09T11:06:20.585Z,75.70
2019-03-09T11:08:24.917Z,76.30
2019-03-09T11:10:29.573Z,75.80
2019-03-09T11:12:34.313Z,75.70
2019-03-09T11:14:38.951Z,75.20
2019-03-09T11:16:43.463Z,75.50
2019-03-09T11:18:47.809Z,74.60
2019-03-09T11:20:52.182Z,75.50
2019-03-09T11:22:56.594Z,75.60
2019-03-09T11:25:03.606Z,74.50
2019-03-09T11:27:05.379Z,74.10
2019-03-09T11:29:09.842Z,74.40
2019-03-09T11:31:14.181Z,73.90
2019-03-09T11:33:18.517Z,74.40
2019-03-09T11:35:23.000Z,72.80
2019-03-09T11:37:27.386Z,74.20
2019-03-09T11:39:31.880Z,72.70
2019-03-09T11:41:36.852Z,73.10
2019-03-09T11:43:41.248Z,73.40
2019-03-09T11:45:45.643Z,72.40
2019-03-09T11:47:50.104Z,73.80
2019-03-09T11:49:54.462Z,73.60
2019-03-09T11:51:58.898Z,72.50
2019-03-09T11:54:03.249Z,71.60
2019-03-09T11:56:07.611Z,71.20
2019-03-09T11:58:11.973Z,71.80
2019-03-09T12:00:19.099Z,71.20
2019-03-09T12:02:23.461Z,72.00
2019-03-09T12:04:27.829Z,71.80
2019-03-09T12:06:32.262Z,70.70
2019-03-09T12:08:36.622Z,70.30
2019-03-09T12:10:40.987Z,69.70
2019-03-09T12:12:45.399Z,69.90
2019-03-09T12:14:49.785Z,69.90
2019-03-09T12:16:54.148Z,69.60
2019-03-09T12:18:58.583Z,69.90
2019-03-09T12:21:03.018Z,68.20
2019-03-09T12:23:17.722Z,68.50
2019-03-09T12:25:22.106Z,69.10
2019-03-09T12:27:26.463Z,67.50
2019-03-09T12:29:30.883Z,67.70
2019-03-09T12:31:35.254Z,67.50
2019-03-09T12:33:39.617Z,65.60
2019-03-09T12:35:44.312Z,65.40
2019-03-09T12:37:48.556Z,65.20
2019-03-09T12:39:52.944Z,65.50
2019-03-09T12:41:57.310Z,66.70
2019-03-09T12:44:01.727Z,67.30
2019-03-09T12:46:06.096Z,67.00
2019-03-09T12:48:10.520Z,66.20
2019-03-09T12:50:16.278Z,64.90
2019-03-09T12:52:20.684Z,65.00
2019-03-09T12:54:25.025Z,65.00
2019-03-09T12:56:30.695Z,65.10
2019-03-09T12:58:35.066Z,65.10
2019-03-09T13:00:39.408Z,64.90
2019-03-09T13:02:43.797Z,63.70
2019-03-09T13:04:48.304Z,64.00
2019-03-09T13:06:52.690Z,65.20
2019-03-09T13:08:57.039Z,64.50
2019-03-09T13:11:01.426Z,64.50
2019-03-09T13:13:05.813Z,63.90
2019-03-09T13:15:10.310Z,65.30
2019-03-09T13:17:14.696Z,64.10
2019-03-09T13:19:19.098Z,62.60
2019-03-09T13:21:23.437Z,63.60
2019-03-09T13:23:27.843Z,63.10
2019-03-09T13:25:32.203Z,64.70
2019-03-09T13:27:36.665Z,64.10
2019-03-09T13:29:41.030Z,63.10
2019-03-09T13:31:45.437Z,62.70
2019-03-09T13:33:49.772Z,62.00
2019-03-09T13:35:54.151Z,58.80
2019-03-09T13:37:58.533Z,59.70
2019-03-09T13:40:03.065Z,58.70
2019-03-09T13:42:07.424Z,57.40
2019-03-09T13:44:11.838Z,58.90
2019-03-09T13:46:16.244Z,56.30
2019-03-09T13:48:20.607Z,56.00
2019-03-09T13:50:25.059Z,55.70
2019-03-09T13:52:29.446Z,55.60
2019-03-09T13:54:33.906Z,56.40
2019-03-09T13:56:38.316Z,56.20
2019-03-09T13:58:43.178Z,56.00
2019-03-09T14:00:47.570Z,57.00
2019-03-09T14:02:51.917Z,57.30
2019-03-09T14:04:56.292Z,58.50
2019-03-09T14:07:00.665Z,60.10
2019-03-09T14:09:05.571Z,63.40
2019-03-09T14:11:09.986Z,69.00
2019-03-09T14:13:14.335Z,71.20
2019-03-09T14:15:18.714Z,75.50
2019-03-09T14:17:23.142Z,79.10
2019-03-09T14:19:27.541Z,82.00
2019-03-09T14:21:31.883Z,86.40
2019-03-09T14:23:36.274Z,88.40
2019-03-09T14:25:40.625Z,90.40
2019-03-09T14:27:44.982Z,90.40
2019-03-09T14:29:49.373Z,90.60
2019-03-09T14:31:53.735Z,90.90
2019-03-09T14:33:58.111Z,91.20
2019-03-09T14:36:02.564Z,91.20
2019-03-09T14:38:06.918Z,90.10
2019-03-09T14:40:11.438Z,90.80
2019-03-09T14:42:15.876Z,90.70
2019-03-09T14:44:20.242Z,90.70
2019-03-09T14:46:24.561Z,91.40
2019-03-09T14:48:28.965Z,91.80
2019-03-09T14:50:33.318Z,91.30
2019-03-09T14:52:37.683Z,91.20
2019-03-09T14:54:42.396Z,92.30
2019-03-09T14:56:46.714Z,93.00
2019-03-09T14:58:51.041Z,93.30
2019-03-09T15:00:55.457Z,92.90
2019-03-09T15:02:59.782Z,92.60
2019-03-09T15:05:04.439Z,92.10
2019-03-09T15:07:09.626Z,92.50
2019-03-09T15:09:14.030Z,92.20
2019-03-09T15:11:18.359Z,92.50
2019-03-09T15:13:22.858Z,92.20
2019-03-09T15:15:27.241Z,92.30
2019-03-09T15:17:31.620Z,92.70
2019-03-09T15:19:36.003Z,92.70
2019-03-09T15:21:40.332Z,93.10
2019-03-09T15:23:44.747Z,92.20
2019-03-09T15:25:49.146Z,92.00
2019-03-09T15:27:53.570Z,92.30
2019-03-09T15:29:57.969Z,92.30
2019-03-09T15:32:02.458Z,91.40
2019-03-09T15:34:06.974Z,91.80
2019-03-09T15:36:11.342Z,91.50
2019-03-09T15:38:15.790Z,91.60
2019-03-09T15:40:20.274Z,91.90
2019-03-09T15:42:24.614Z,92.10
2019-03-09T15:44:29.198Z,92.40
2019-03-09T15:46:33.590Z,92.40
2019-03-09T15:48:38.014Z,92.40
2019-03-09T15:50:42.406Z,92.40
2019-03-09T15:52:46.966Z,93.20
2019-03-09T15:54:51.635Z,91.70
2019-03-09T15:56:56.169Z,92.00
2019-03-09T15:59:00.626Z,92.70
2019-03-09T16:01:05.114Z,93.90
2019-03-09T16:03:09.520Z,94.20
2019-03-09T16:05:13.958Z,94.50
2019-03-09T16:07:18.336Z,95.40
2019-03-09T16:09:22.727Z,95.40
2019-03-09T16:11:27.158Z,95.90
2019-03-09T16:13:31.697Z,96.50
2019-03-09T16:15:36.027Z,96.70
2019-03-09T16:17:40.530Z,96.60
2019-03-09T16:19:44.934Z,96.90
2019-03-09T16:21:51.986Z,96.20
2019-03-09T16:23:57.645Z,96.20
2019-03-09T16:26:02.174Z,96.20
2019-03-09T16:28:06.726Z,96.20
2019-03-09T16:30:13.837Z,95.30
2019-03-09T16:32:19.293Z,95.40
2019-03-09T16:34:24.271Z,94.80
2019-03-09T16:36:28.782Z,94.80
2019-03-09T16:38:33.243Z,94.10
2019-03-09T16:40:40.857Z,93.40
2019-03-09T16:42:42.039Z,94.40
2019-03-09T16:44:46.450Z,93.40
2019-03-09T16:46:50.860Z,92.10
2019-03-09T16:48:55.279Z,93.20
2019-03-09T16:50:59.683Z,93.50
2019-03-09T16:53:04.067Z,93.30
2019-03-09T16:55:08.553Z,93.00
2019-03-09T16:57:13.899Z,92.60
2019-03-09T16:59:18.315Z,92.20
2019-03-09T17:01:22.739Z,92.20
2019-03-09T17:03:27.179Z,93.10
2019-03-09T17:05:31.555Z,92.80
2019-03-09T17:07:42.668Z,93.10
2019-03-09T17:09:53.401Z,92.00
2019-03-09T17:11:57.829Z,91.80
2019-03-09T17:14:02.227Z,91.60
2019-03-09T17:16:06.610Z,92.00
2019-03-09T17:18:10.940Z,91.00
2019-03-09T17:20:15.525Z,91.00
2019-03-09T17:22:19.888Z,91.10
2019-03-09T17:24:30.910Z,91.00
2019-03-09T17:26:35.306Z,90.90
2019-03-09T17:28:40.875Z,91.20
2019-03-09T17:30:45.336Z,91.10
2019-03-09T17:32:49.682Z,90.30
2019-03-09T17:34:54.090Z,90.60
2019-03-09T17:36:59.422Z,91.00
2019-03-09T17:39:03.909Z,90.80
2019-03-09T17:41:08.273Z,90.20
2019-03-09T17:43:12.666Z,90.70
2019-03-09T17:45:18.421Z,90.80
2019-03-09T17:47:22.784Z,90.20
2019-03-09T17:49:27.217Z,90.80
2019-03-09T17:51:31.709Z,90.10
2019-03-09T17:53:36.143Z,90.30
2019-03-09T17:55:40.599Z,89.70
2019-03-09T17:57:45.102Z,90.00
2019-03-09T17:59:49.430Z,88.90
2019-03-09T18:01:53.778Z,90.30
2019-03-09T18:03:58.860Z,90.00
2019-03-09T18:06:03.310Z,88.60
2019-03-09T18:08:07.725Z,88.90
2019-03-09T18:10:15.398Z,89.30
2019-03-09T18:12:19.738Z,88.00
2019-03-09T18:14:24.135Z,87.90
2019-03-09T18:16:28.566Z,88.20
2019-03-09T18:18:32.937Z,88.10
2019-03-09T18:20:37.430Z,87.80
2019-03-09T18:22:41.874Z,87.70
2019-03-09T18:24:46.179Z,87.30
2019-03-09T18:26:50.502Z,87.30
2019-03-09T18:28:54.874Z,87.00
2019-03-09T18:30:59.260Z,88.20
2019-03-09T18:33:03.659Z,88.10
2019-03-09T18:35:08.322Z,86.50
2019-03-09T18:37:12.668Z,86.60
2019-03-09T18:39:17.086Z,86.70
2019-03-09T18:41:21.451Z,86.90
2019-03-09T18:43:25.837Z,86.80
2019-03-09T18:45:30.205Z,86.10
2019-03-09T18:47:34.750Z,87.10
2019-03-09T18:49:39.168Z,87.50
2019-03-09T18:51:43.568Z,87.40
2019-03-09T18:53:47.935Z,86.30
2019-03-09T18:55:59.134Z,86.00
2019-03-09T18:57:56.778Z,86.10
2019-03-09T19:00:01.160Z,86.70
2019-03-09T19:02:05.590Z,88.70
2019-03-09T19:04:10.875Z,86.10
2019-03-09T19:06:15.501Z,86.80
2019-03-09T19:08:19.865Z,86.80
2019-03-09T19:10:24.308Z,87.50
2019-03-09T19:12:28.719Z,86.00
2019-03-09T19:14:33.189Z,85.60
2019-03-09T19:16:37.612Z,85.40
2019-03-09T19:18:42.694Z,84.80
2019-03-09T19:20:47.396Z,85.70
2019-03-09T19:22:51.820Z,85.70
2019-03-09T19:24:56.816Z,85.50
2019-03-09T19:27:01.985Z,86.10
2019-03-09T19:29:08.332Z,85.10
2019-03-09T19:31:12.929Z,86.80
2019-03-09T19:33:18.183Z,84.40
2019-03-09T19:35:22.984Z,84.10
2019-03-09T19:37:28.406Z,83.80
2019-03-09T19:39:32.958Z,83.10
2019-03-09T19:41:37.392Z,83.80
2019-03-09T19:43:42.310Z,85.00
2019-03-09T19:45:47.331Z,82.90
2019-03-09T19:47:53.878Z,82.80
2019-03-09T19:50:03.856Z,84.10
2019-03-09T19:52:19.520Z,84.60
2019-03-09T19:54:24.205Z,83.70
2019-03-09T19:56:29.762Z,83.10
2019-03-09T19:58:35.275Z,83.80
2019-03-09T20:00:40.811Z,84.50
2019-03-09T20:02:46.671Z,84.40
2019-03-09T20:04:52.187Z,84.90
2019-03-09T20:06:57.494Z,83.80
2019-03-09T20:09:03.692Z,83.70
2019-03-09T20:11:14.789Z,83.70
2019-03-09T20:13:19.959Z,84.40
2019-03-09T20:15:25.081Z,84.00
2019-03-09T20:17:30.362Z,83.70
2019-03-09T20:19:35.833Z,83.50
2019-03-09T20:21:41.238Z,84.60
2019-03-09T20:23:46.340Z,82.90
2019-03-09T20:25:51.407Z,83.30
2019-03-09T20:27:56.718Z,82.20
2019-03-09T20:30:02.222Z,83.40
2019-03-09T20:32:08.478Z,83.50
2019-03-09T20:34:13.925Z,83.80
2019-03-09T20:36:19.370Z,83.20
2019-03-09T20:38:24.790Z,84.70
2019-03-09T20:40:30.426Z,84.60
2019-03-09T20:42:35.828Z,84.70
2019-03-09T20:44:41.121Z,82.70
2019-03-09T20:46:46.658Z,84.30
2019-03-09T20:48:51.022Z,84.90
2019-03-09T20:50:56.179Z,84.50
2019-03-09T20:53:00.611Z,83.60
2019-03-09T20:55:05.084Z,85.80
2019-03-09T20:57:09.544Z,86.40
2019-03-09T20:59:13.912Z,85.00
2019-03-09T21:01:18.373Z,85.10
2019-03-09T21:03:23.010Z,86.30
2019-03-09T21:05:27.071Z,85.80
2019-03-09T21:07:31.484Z,85.90
2019-03-09T21:09:35.928Z,86.30
2019-03-09T21:11:40.269Z,85.50
2019-03-09T21:13:44.718Z,86.30
2019-03-09T21:15:49.102Z,86.40
2019-03-09T21:17:53.512Z,86.40
2019-03-09T21:19:57.925Z,86.60
2019-03-09T21:22:02.347Z,87.90
2019-03-09T21:24:06.750Z,87.40
2019-03-09T21:26:11.222Z,88.10
2019-03-09T21:28:15.568Z,88.00
2019-03-09T21:30:19.978Z,87.90
2019-03-09T21:32:24.458Z,88.00
2019-03-09T21:34:28.845Z,87.40
2019-03-09T21:36:33.438Z,87.10
2019-03-09T21:38:37.841Z,87.60
2019-03-09T21:40:42.275Z,87.60
2019-03-09T21:42:46.655Z,87.50
2019-03-09T21:44:51.084Z,87.40
2019-03-09T21:46:55.447Z,87.40
2019-03-09T21:48:59.808Z,86.50
2019-03-09T21:51:04.219Z,86.60
2019-03-09T21:53:08.574Z,86.40
2019-03-09T21:55:13.007Z,86.50
2019-03-09T21:57:17.322Z,84.60
2019-03-09T21:59:21.701Z,84.90
2019-03-09T22:01:26.063Z,85.50
2019-03-09T22:03:30.491Z,85.60
2019-03-09T22:05:34.888Z,84.70
2019-03-09T22:07:39.241Z,84.80
2019-03-09T22:09:43.572Z,83.90
2019-03-09T22:11:47.943Z,85.00
2019-03-09T22:13:52.410Z,84.30
2019-03-09T22:15:56.730Z,83.70
2019-03-09T22:18:01.118Z,82.60
2019-03-09T22:20:06.034Z,82.60
2019-03-09T22:22:10.445Z,83.00
2019-03-09T22:24:19.999Z,83.20
2019-03-09T22:26:24.506Z,83.20
2019-03-09T22:28:28.851Z,83.00
2019-03-09T22:30:33.288Z,83.40
2019-03-09T22:32:37.670Z,83.30
2019-03-09T22:34:42.002Z,83.50
2019-03-09T22:36:46.365Z,82.00
2019-03-09T22:38:50.737Z,82.80
2019-03-09T22:40:55.133Z,82.80
2019-03-09T22:42:59.540Z,82.80
2019-03-09T22:45:03.951Z,82.50
2019-03-09T22:47:11.940Z,83.00
2019-03-09T22:49:12.734Z,82.40
2019-03-09T22:51:17.148Z,81.90
2019-03-09T22:53:21.539Z,80.80
2019-03-09T22:55:25.902Z,82.30
2019-03-09T22:57:30.292Z,80.00
2019-03-09T22:59:34.666Z,80.70
2019-03-09T23:01:39.068Z,81.70
2019-03-09T23:03:43.439Z,80.70
2019-03-09T23:05:47.898Z,80.60
2019-03-09T23:07:52.281Z,81.10
2019-03-09T23:09:56.678Z,80.00
2019-03-09T23:12:01.098Z,80.00
2019-03-09T23:14:05.498Z,79.80
2019-03-09T23:16:09.838Z,80.50
2019-03-09T23:18:14.204Z,80.00
2019-03-09T23:20:18.641Z,80.20
2019-03-09T23:22:22.986Z,81.00
2019-03-09T23:24:27.338Z,80.30
2019-03-09T23:26:31.694Z,80.60
2019-03-09T23:28:47.403Z,80.20
2019-03-09T23:30:51.864Z,79.00
2019-03-09T23:32:56.240Z,79.80
2019-03-09T23:35:00.663Z,78.90
2019-03-09T23:37:05.082Z,80.00
2019-03-09T23:39:09.465Z,78.20
2019-03-09T23:41:13.866Z,78.70
2019-03-09T23:43:18.209Z,79.00
2019-03-09T23:45:22.591Z,77.80
2019-03-09T23:47:26.966Z,78.70
2019-03-09T23:49:31.293Z,78.40
2019-03-09T23:51:35.721Z,78.70
2019-03-09T23:53:40.321Z,78.40
2019-03-09T23:55:44.728Z,78.10
2019-03-09T23:57:49.275Z,78.50
2019-03-09T23:59:53.662Z,76.40
